createdAt,value
2018-05-15T00:01:52.488Z,2.87
2018-05-15T00:03:55.785Z,3.57
2018-05-15T00:05:58.676Z,2.97
2018-05-15T00:08:01.622Z,3.17
2018-05-15T00:10:05.281Z,3.40
2018-05-15T00:12:08.152Z,3.30
2018-05-15T00:14:11.038Z,3.30
2018-05-15T00:16:13.936Z,3.43
2018-05-15T00:18:16.917Z,3.83
2018-05-15T00:20:19.889Z,3.37
2018-05-15T00:22:22.883Z,3.30
2018-05-15T00:24:27.273Z,3.27
2018-05-15T00:26:30.281Z,3.50
2018-05-15T00:28:33.568Z,4.63
2018-05-15T00:30:36.441Z,3.30
2018-05-15T00:32:39.315Z,3.47
2018-05-15T00:34:42.225Z,3.90
2018-05-15T00:36:45.890Z,2.90
2018-05-15T00:38:48.744Z,2.63
2018-05-15T00:40:51.670Z,3.20
2018-05-15T00:42:54.550Z,3.43
2018-05-15T00:44:57.425Z,3.07
2018-05-15T00:47:00.414Z,4.47
2018-05-15T00:49:03.365Z,4.23
2018-05-15T00:51:06.240Z,3.33
2018-05-15T00:53:09.151Z,4.60
2018-05-15T00:55:24.129Z,3.50
2018-05-15T00:57:27.091Z,3.80
2018-05-15T00:59:29.981Z,3.50
2018-05-15T01:01:32.873Z,3.33
2018-05-15T01:03:35.748Z,3.73
2018-05-15T01:05:38.833Z,2.70
2018-05-15T01:07:41.719Z,3.60
2018-05-15T01:09:44.593Z,3.40
2018-05-15T01:11:47.485Z,4.20
2018-05-15T01:13:51.129Z,3.80
2018-05-15T01:15:54.020Z,3.90
2018-05-15T01:17:57.175Z,3.30
2018-05-15T01:20:00.801Z,3.90
2018-05-15T01:22:03.710Z,3.13
2018-05-15T01:24:06.601Z,3.53
2018-05-15T01:26:09.585Z,3.40
2018-05-15T01:28:12.465Z,3.90
2018-05-15T01:30:17.284Z,3.43
2018-05-15T01:32:21.671Z,3.50
2018-05-15T01:34:25.556Z,3.93
2018-05-15T01:36:28.412Z,4.47
2018-05-15T01:38:32.069Z,3.73
2018-05-15T01:40:35.757Z,2.90
2018-05-15T01:42:38.776Z,3.40
2018-05-15T01:44:41.658Z,3.90
2018-05-15T01:46:44.573Z,3.43
2018-05-15T01:48:48.291Z,3.50
2018-05-15T01:50:51.209Z,3.60
2018-05-15T01:52:54.778Z,3.87
2018-05-15T01:54:57.840Z,4.20
2018-05-15T01:57:01.516Z,3.77
2018-05-15T01:59:04.458Z,3.27
2018-05-15T02:01:07.373Z,4.10
2018-05-15T02:03:10.330Z,3.80
2018-05-15T02:05:13.232Z,3.70
2018-05-15T02:07:16.162Z,3.13
2018-05-15T02:09:19.113Z,3.60
2018-05-15T02:11:22.801Z,3.47
2018-05-15T02:13:25.746Z,3.47
2018-05-15T02:15:28.692Z,3.57
2018-05-15T02:17:32.417Z,3.47
2018-05-15T02:19:35.341Z,3.47
2018-05-15T02:21:39.772Z,3.87
2018-05-15T02:23:43.594Z,4.00
2018-05-15T02:25:47.274Z,3.33
2018-05-15T02:27:50.214Z,3.30
2018-05-15T02:29:53.125Z,3.33
2018-05-15T02:31:56.141Z,3.50
2018-05-15T02:33:59.945Z,3.27
2018-05-15T02:36:03.629Z,4.43
2018-05-15T02:38:06.561Z,3.60
2018-05-15T02:40:09.504Z,4.77
2018-05-15T02:42:13.358Z,3.17
2018-05-15T02:44:16.302Z,3.30
2018-05-15T02:46:19.980Z,4.00
2018-05-15T02:48:22.909Z,3.60
2018-05-15T02:50:25.854Z,3.27
2018-05-15T02:52:29.525Z,4.07
2018-05-15T02:54:32.459Z,3.80
2018-05-15T02:56:35.377Z,3.00
2018-05-15T02:58:38.381Z,3.60
2018-05-15T03:00:42.067Z,3.67
2018-05-15T03:02:45.033Z,3.77
2018-05-15T03:04:48.092Z,3.90
2018-05-15T03:06:51.023Z,3.50
2018-05-15T03:08:54.148Z,3.80
2018-05-15T03:10:57.074Z,3.63
2018-05-15T03:13:00.123Z,3.60
2018-05-15T03:15:03.089Z,3.63
2018-05-15T03:17:06.013Z,3.10
2018-05-15T03:19:08.928Z,3.47
2018-05-15T03:21:12.755Z,4.10
2018-05-15T03:23:16.466Z,4.77
2018-05-15T03:25:19.410Z,3.57
2018-05-15T03:27:23.858Z,3.70
2018-05-15T03:29:27.527Z,4.00
2018-05-15T03:31:31.992Z,3.77
2018-05-15T03:33:34.953Z,3.70
2018-05-15T03:35:38.756Z,3.43
2018-05-15T03:37:42.434Z,3.97
2018-05-15T03:39:45.349Z,3.50
2018-05-15T03:41:48.312Z,4.77
2018-05-15T03:43:51.308Z,3.87
2018-05-15T03:45:55.103Z,3.63
2018-05-15T03:47:58.781Z,4.67
2018-05-15T03:50:03.203Z,3.80
2018-05-15T03:52:07.020Z,3.90
2018-05-15T03:54:10.690Z,3.40
2018-05-15T03:56:13.630Z,4.70
2018-05-15T03:58:16.548Z,3.90
2018-05-15T04:00:31.474Z,3.87
2018-05-15T04:02:46.214Z,3.87
2018-05-15T04:05:00.905Z,3.57
2018-05-15T04:07:15.818Z,4.07
2018-05-15T04:09:19.501Z,3.87
2018-05-15T04:11:22.506Z,4.00
2018-05-15T04:13:26.209Z,3.93
2018-05-15T04:15:29.149Z,4.30
2018-05-15T04:17:32.135Z,4.30
2018-05-15T04:19:35.078Z,3.80
2018-05-15T04:21:38.976Z,3.87
2018-05-15T04:23:41.901Z,3.60
2018-05-15T04:25:44.923Z,3.63
2018-05-15T04:27:48.737Z,4.47
2018-05-15T04:29:51.650Z,3.70
2018-05-15T04:31:54.595Z,4.47
2018-05-15T04:33:57.545Z,3.93
2018-05-15T04:36:00.462Z,4.13
2018-05-15T04:38:03.385Z,4.03
2018-05-15T04:40:06.338Z,4.30
2018-05-15T04:42:09.277Z,4.40
2018-05-15T04:44:12.990Z,4.73
2018-05-15T04:46:16.684Z,4.20
2018-05-15T04:48:20.382Z,3.50
2018-05-15T04:50:24.918Z,4.73
2018-05-15T04:52:28.602Z,3.63
2018-05-15T04:54:32.331Z,3.73
2018-05-15T04:56:35.249Z,4.17
2018-05-15T04:58:38.291Z,3.63
2018-05-15T05:00:41.993Z,3.87
2018-05-15T05:02:45.686Z,4.00
2018-05-15T05:04:49.403Z,4.73
2018-05-15T05:06:52.422Z,4.68
2018-05-15T05:08:55.403Z,6.20
2018-05-15T05:10:58.353Z,3.70
2018-05-15T05:13:01.278Z,3.73
2018-05-15T05:15:04.248Z,4.87
2018-05-15T05:17:07.194Z,4.43
2018-05-15T05:19:10.129Z,4.57
2018-05-15T05:21:13.047Z,3.73
2018-05-15T05:23:16.816Z,3.70
2018-05-15T05:25:19.746Z,4.30
2018-05-15T05:27:22.657Z,4.90
2018-05-15T05:29:25.612Z,4.60
2018-05-15T05:31:28.537Z,4.67
2018-05-15T05:33:31.474Z,3.73
2018-05-15T05:35:34.409Z,3.93
2018-05-15T05:37:37.418Z,4.43
2018-05-15T05:39:41.442Z,5.20
2018-05-15T05:41:45.117Z,4.63
2018-05-15T05:43:48.803Z,4.40
2018-05-15T05:45:51.808Z,3.80
2018-05-15T05:47:55.486Z,4.30
2018-05-15T05:49:58.490Z,4.53
2018-05-15T05:52:01.443Z,3.80
2018-05-15T05:54:04.459Z,3.63
2018-05-15T05:56:07.379Z,4.50
2018-05-15T05:58:10.329Z,4.67
2018-05-15T06:00:13.261Z,4.07
2018-05-15T06:02:16.213Z,5.00
2018-05-15T06:04:19.181Z,4.47
2018-05-15T06:06:22.105Z,4.03
2018-05-15T06:08:25.058Z,4.50
2018-05-15T06:10:27.973Z,4.73
2018-05-15T06:12:30.960Z,4.37
2018-05-15T06:14:33.879Z,4.63
2018-05-15T06:16:37.549Z,4.50
2018-05-15T06:18:40.523Z,4.23
2018-05-15T06:20:43.479Z,4.00
2018-05-15T06:22:46.406Z,4.13
2018-05-15T06:24:50.111Z,4.40
2018-05-15T06:26:53.073Z,3.90
2018-05-15T06:28:55.994Z,4.40
2018-05-15T06:30:59.672Z,3.60
2018-05-15T06:33:03.493Z,4.00
2018-05-15T06:35:06.487Z,3.95
2018-05-15T06:37:09.438Z,4.93
2018-05-15T06:39:13.143Z,4.57
2018-05-15T06:41:16.829Z,4.10
2018-05-15T06:43:19.780Z,4.73
2018-05-15T06:45:22.713Z,4.37
2018-05-15T06:47:26.450Z,4.43
2018-05-15T06:49:29.365Z,4.87
2018-05-15T06:51:32.282Z,3.80
2018-05-15T06:53:36.002Z,4.57
2018-05-15T06:55:38.949Z,4.60
2018-05-15T06:57:41.886Z,4.50
2018-05-15T06:59:44.793Z,4.30
2018-05-15T07:01:47.842Z,5.20
2018-05-15T07:03:50.899Z,4.43
2018-05-15T07:05:54.575Z,4.67
2018-05-15T07:07:59.119Z,4.30
2018-05-15T07:10:02.923Z,3.63
2018-05-15T07:12:06.631Z,4.43
2018-05-15T07:14:09.596Z,4.00
2018-05-15T07:16:13.404Z,5.07
2018-05-15T07:18:17.228Z,4.33
2018-05-15T07:20:20.993Z,4.20
2018-05-15T07:22:24.812Z,4.67
2018-05-15T07:24:28.616Z,4.43
2018-05-15T07:26:31.537Z,3.93
2018-05-15T07:28:34.491Z,4.27
2018-05-15T07:30:37.431Z,4.63
2018-05-15T07:32:40.385Z,4.23
2018-05-15T07:34:43.307Z,5.30
2018-05-15T07:36:46.240Z,4.30
2018-05-15T07:38:49.188Z,4.30
2018-05-15T07:40:52.885Z,4.43
2018-05-15T07:42:56.788Z,4.13
2018-05-15T07:45:00.463Z,4.50
2018-05-15T07:47:04.889Z,4.27
2018-05-15T07:49:07.821Z,3.90
2018-05-15T07:51:10.737Z,4.20
2018-05-15T07:53:13.857Z,5.00
2018-05-15T07:55:18.286Z,3.97
2018-05-15T07:57:21.247Z,4.27
2018-05-15T07:59:24.929Z,4.80
2018-05-15T08:01:27.857Z,4.30
2018-05-15T08:03:30.811Z,4.30
2018-05-15T08:05:33.904Z,3.90
2018-05-15T08:07:37.709Z,4.30
2018-05-15T08:09:41.446Z,3.90
2018-05-15T08:11:44.365Z,4.40
2018-05-15T08:13:48.829Z,4.73
2018-05-15T08:15:51.751Z,4.93
2018-05-15T08:17:54.685Z,4.43
2018-05-15T08:19:58.353Z,4.27
2018-05-15T08:22:02.785Z,4.80
2018-05-15T08:24:06.589Z,4.60
2018-05-15T08:26:10.306Z,4.43
2018-05-15T08:28:13.249Z,3.83
2018-05-15T08:30:16.181Z,4.10
2018-05-15T08:32:19.111Z,4.80
2018-05-15T08:34:22.067Z,4.70
2018-05-15T08:36:24.988Z,4.30
2018-05-15T08:38:28.721Z,4.80
2018-05-15T08:40:31.637Z,4.80
2018-05-15T08:42:34.585Z,4.00
2018-05-15T08:44:37.524Z,4.30
2018-05-15T08:46:40.466Z,4.90
2018-05-15T08:48:43.424Z,4.40
2018-05-15T08:50:46.344Z,4.33
2018-05-15T08:52:49.292Z,4.70
2018-05-15T08:54:52.237Z,3.93
2018-05-15T08:56:55.150Z,4.73
2018-05-15T08:58:58.090Z,4.90
2018-05-15T09:01:01.062Z,5.00
2018-05-15T09:03:04.014Z,4.70
2018-05-15T09:05:06.929Z,4.70
2018-05-15T09:07:09.840Z,4.20
2018-05-15T09:09:13.553Z,4.40
2018-05-15T09:11:17.228Z,4.60
2018-05-15T09:13:21.049Z,4.50
2018-05-15T09:15:25.738Z,4.23
2018-05-15T09:17:28.731Z,4.70
2018-05-15T09:19:31.672Z,4.63
2018-05-15T09:21:34.636Z,4.57
2018-05-15T09:23:37.586Z,4.47
2018-05-15T09:25:41.278Z,4.13
2018-05-15T09:27:45.734Z,4.43
2018-05-15T09:29:48.659Z,4.20
2018-05-15T09:31:51.682Z,4.00
2018-05-15T09:33:55.387Z,4.80
2018-05-15T09:35:58.325Z,4.00
2018-05-15T09:38:01.297Z,4.30
2018-05-15T09:40:04.211Z,4.10
2018-05-15T09:42:07.898Z,3.57
2018-05-15T09:44:10.832Z,3.73
2018-05-15T09:46:14.574Z,3.43
2018-05-15T09:48:17.549Z,3.83
2018-05-15T09:50:20.457Z,3.60
2018-05-15T09:52:23.375Z,3.40
2018-05-15T09:54:26.313Z,3.30
2018-05-15T09:56:30.737Z,3.50
2018-05-15T09:58:35.198Z,3.60
2018-05-15T10:00:38.113Z,4.10
2018-05-15T10:02:41.048Z,3.63
2018-05-15T10:04:44.007Z,4.37
2018-05-15T10:06:47.697Z,3.63
2018-05-15T10:08:50.657Z,3.47
2018-05-15T10:10:53.591Z,3.60
2018-05-15T10:12:56.542Z,3.87
2018-05-15T10:14:59.484Z,3.50
2018-05-15T10:17:02.411Z,3.00
2018-05-15T10:19:06.865Z,3.43
2018-05-15T10:21:09.781Z,2.80
2018-05-15T10:23:12.729Z,2.97
2018-05-15T10:25:15.760Z,3.33
2018-05-15T10:27:18.759Z,2.77
2018-05-15T10:29:22.501Z,3.40
2018-05-15T10:31:25.405Z,2.40
2018-05-15T10:33:28.347Z,3.00
2018-05-15T10:35:32.025Z,3.00
2018-05-15T10:37:35.025Z,3.27
2018-05-15T10:39:38.825Z,2.77
2018-05-15T10:41:42.512Z,4.10
2018-05-15T10:43:45.447Z,2.83
2018-05-15T10:45:48.358Z,2.47
2018-05-15T10:47:52.807Z,3.13
2018-05-15T10:49:56.529Z,2.97
2018-05-15T10:51:59.491Z,3.10
2018-05-15T10:54:03.295Z,2.70
2018-05-15T10:56:06.253Z,4.30
2018-05-15T10:58:09.585Z,3.03
2018-05-15T11:00:12.527Z,3.10
2018-05-15T11:02:15.447Z,3.43
2018-05-15T11:04:18.393Z,3.93
2018-05-15T11:06:21.315Z,2.90
2018-05-15T11:08:24.250Z,3.97
2018-05-15T11:10:27.958Z,3.20
2018-05-15T11:12:30.858Z,3.10
2018-05-15T11:14:33.864Z,3.13
2018-05-15T11:16:36.774Z,2.83
2018-05-15T11:18:42.740Z,2.60
2018-05-15T11:20:57.397Z,3.23
2018-05-15T11:23:12.281Z,3.37
2018-05-15T11:25:15.217Z,3.07
2018-05-15T11:27:18.137Z,3.57
2018-05-15T11:29:21.858Z,3.60
2018-05-15T11:31:25.523Z,3.47
2018-05-15T11:33:29.217Z,2.97
2018-05-15T11:35:32.168Z,3.53
2018-05-15T11:37:35.118Z,3.30
2018-05-15T11:39:38.933Z,3.47
2018-05-15T11:41:41.948Z,3.67
2018-05-15T11:43:44.887Z,3.20
2018-05-15T11:45:48.735Z,3.10
2018-05-15T11:47:51.847Z,3.30
2018-05-15T11:49:55.319Z,3.40
2018-05-15T11:51:58.332Z,2.80
2018-05-15T11:54:01.432Z,3.50
2018-05-15T11:56:04.277Z,3.83
2018-05-15T11:58:07.250Z,3.80
2018-05-15T12:00:10.166Z,3.10
2018-05-15T12:02:13.109Z,3.00
2018-05-15T12:04:16.021Z,3.67
2018-05-15T12:06:19.033Z,3.20
2018-05-15T12:08:22.864Z,3.87
2018-05-15T12:10:25.818Z,3.70
2018-05-15T12:12:29.622Z,3.30
2018-05-15T12:14:33.293Z,3.60
2018-05-15T12:16:36.241Z,2.90
2018-05-15T12:18:39.157Z,3.63
2018-05-15T12:20:42.070Z,3.83
2018-05-15T12:22:45.015Z,3.77
2018-05-15T12:24:47.990Z,3.10
2018-05-15T12:27:00.946Z,3.30
2018-05-15T12:31:40.959Z,2.80
2018-05-15T12:41:38.515Z,4.20
2018-05-15T12:43:52.667Z,3.77
2018-05-15T12:51:36.187Z,3.30
2018-05-15T13:01:38.843Z,3.83
2018-05-15T13:03:52.900Z,4.60
2018-05-15T13:11:38.312Z,4.27
2018-05-15T13:21:37.784Z,3.40
2018-05-15T13:31:38.033Z,4.50
2018-05-15T13:41:35.947Z,3.77
2018-05-15T13:51:40.767Z,3.40
2018-05-15T13:53:43.682Z,4.20
2018-05-15T13:55:46.629Z,3.63
2018-05-15T13:57:49.633Z,3.62
2018-05-15T13:59:52.581Z,4.13
2018-05-15T14:01:55.485Z,4.20
2018-05-15T14:03:58.396Z,3.77
2018-05-15T14:06:01.350Z,3.73
2018-05-15T14:08:04.260Z,3.03
2018-05-15T14:10:07.211Z,3.73
2018-05-15T14:12:10.123Z,3.70
2018-05-15T14:14:13.042Z,3.93
2018-05-15T14:16:16.012Z,3.90
2018-05-15T14:18:19.826Z,3.50
2018-05-15T14:20:22.779Z,4.20
2018-05-15T14:22:26.461Z,3.60
2018-05-15T14:24:29.479Z,3.77
2018-05-15T14:26:33.200Z,4.47
2018-05-15T14:28:36.108Z,3.77
2018-05-15T14:30:39.144Z,5.03
2018-05-15T14:32:42.821Z,4.50
2018-05-15T14:34:45.725Z,3.77
2018-05-15T14:36:49.441Z,4.10
2018-05-15T14:38:52.360Z,4.10
2018-05-15T14:40:55.302Z,4.00
2018-05-15T14:43:11.039Z,3.63
2018-05-15T14:45:16.662Z,3.83
2018-05-15T14:47:19.588Z,4.13
2018-05-15T14:49:22.489Z,4.17
2018-05-15T14:51:29.068Z,3.93
2018-05-15T14:53:32.173Z,3.60
2018-05-15T14:55:35.336Z,3.53
2018-05-15T14:57:38.257Z,3.27
2018-05-15T14:59:41.284Z,3.87
2018-05-15T15:01:44.996Z,3.97
2018-05-15T15:03:47.936Z,4.63
2018-05-15T15:05:50.963Z,4.10
2018-05-15T15:07:53.882Z,3.77
2018-05-15T15:09:56.826Z,4.43
2018-05-15T15:11:59.797Z,4.23
2018-05-15T15:14:03.501Z,3.57
2018-05-15T15:16:07.229Z,3.87
2018-05-15T15:18:10.153Z,4.33
2018-05-15T15:20:13.097Z,3.60
2018-05-15T15:22:16.022Z,4.77
2018-05-15T15:24:18.978Z,4.10
2018-05-15T15:26:21.925Z,4.13
2018-05-15T15:28:24.849Z,3.80
2018-05-15T15:30:27.808Z,3.90
2018-05-15T15:32:30.770Z,4.13
2018-05-15T15:34:33.766Z,4.10
2018-05-15T15:36:36.643Z,4.50
2018-05-15T15:38:39.562Z,3.93
2018-05-15T15:40:42.517Z,4.10
2018-05-15T15:42:45.443Z,3.93
2018-05-15T15:44:48.446Z,4.00
2018-05-15T15:46:52.146Z,3.70
2018-05-15T15:48:55.829Z,3.70
2018-05-15T15:50:59.571Z,3.90
2018-05-15T15:53:02.531Z,3.60
2018-05-15T15:55:06.214Z,3.93
2018-05-15T15:57:09.932Z,3.40
2018-05-15T15:59:13.606Z,3.90
2018-05-15T16:01:16.692Z,3.50
2018-05-15T16:03:19.672Z,3.70
2018-05-15T16:05:23.451Z,3.33
2018-05-15T16:07:26.382Z,3.70
2018-05-15T16:09:30.053Z,4.20
2018-05-15T16:11:33.067Z,3.93
2018-05-15T16:13:36.741Z,3.80
2018-05-15T16:15:40.476Z,4.30
2018-05-15T16:17:43.394Z,3.63
2018-05-15T16:19:46.323Z,3.87
2018-05-15T16:21:50.049Z,3.50
2018-05-15T16:23:52.978Z,4.00
2018-05-15T16:25:55.930Z,4.13
2018-05-15T16:27:58.851Z,3.70
2018-05-15T16:30:01.769Z,4.20
2018-05-15T16:32:04.822Z,3.87
2018-05-15T16:34:08.572Z,3.73
2018-05-15T16:36:11.545Z,3.90
2018-05-15T16:38:14.475Z,4.10
2018-05-15T16:40:18.919Z,4.33
2018-05-15T16:42:22.722Z,3.73
2018-05-15T16:44:27.241Z,3.50
2018-05-15T16:46:31.149Z,4.18
2018-05-15T16:48:34.849Z,4.50
2018-05-15T16:50:39.062Z,3.77
2018-05-15T16:52:42.806Z,4.30
2018-05-15T16:54:45.717Z,4.30
2018-05-15T16:56:48.694Z,5.03
2018-05-15T16:58:52.439Z,4.47
2018-05-15T17:00:55.343Z,4.97
2018-05-15T17:02:58.331Z,4.03
2018-05-15T17:05:01.957Z,4.33
2018-05-15T17:07:04.911Z,4.03
2018-05-15T17:09:07.826Z,4.03
2018-05-15T17:11:10.757Z,3.80
2018-05-15T17:13:13.735Z,3.90
2018-05-15T17:15:16.628Z,4.37
2018-05-15T17:17:19.561Z,3.97
2018-05-15T17:19:23.255Z,4.27
2018-05-15T17:21:26.206Z,4.20
2018-05-15T17:23:29.248Z,4.07
2018-05-15T17:25:33.056Z,4.10
2018-05-15T17:27:36.014Z,4.03
2018-05-15T17:29:39.114Z,4.60
2018-05-15T17:31:42.810Z,4.10
2018-05-15T17:33:46.516Z,4.23
2018-05-15T17:35:50.193Z,4.33
2018-05-15T17:37:53.920Z,3.80
2018-05-15T17:39:57.613Z,4.00
2018-05-15T17:42:01.326Z,4.77
2018-05-15T17:44:04.262Z,4.20
2018-05-15T17:46:07.209Z,4.70
2018-05-15T17:48:10.121Z,4.23
2018-05-15T17:50:13.039Z,4.50
2018-05-15T17:52:16.843Z,4.43
2018-05-15T17:54:19.781Z,4.87
2018-05-15T17:56:22.733Z,4.07
2018-05-15T17:58:25.656Z,4.47
2018-05-15T18:00:30.074Z,4.07
2018-05-15T18:02:33.046Z,4.30
2018-05-15T18:04:35.993Z,4.40
2018-05-15T18:06:38.933Z,5.43
2018-05-15T18:08:42.624Z,9.90
2018-05-15T18:10:45.562Z,21.37
2018-05-15T18:12:48.617Z,8.20
2018-05-15T18:14:51.702Z,8.70
2018-05-15T18:16:55.409Z,11.93
2018-05-15T18:18:58.337Z,7.00
2018-05-15T18:21:01.390Z,3.30
2018-05-15T18:23:04.326Z,2.60
2018-05-15T18:25:07.255Z,2.40
2018-05-15T18:27:10.222Z,3.00
2018-05-15T18:29:13.904Z,2.90
2018-05-15T18:31:18.358Z,2.60
2018-05-15T18:33:21.270Z,2.00
2018-05-15T18:35:24.176Z,2.10
2018-05-15T18:37:27.125Z,1.90
2018-05-15T18:39:30.038Z,1.87
2018-05-15T18:41:33.769Z,2.00
2018-05-15T18:43:36.682Z,1.93
2018-05-15T18:45:39.602Z,1.80
2018-05-15T18:47:42.605Z,1.60
2018-05-15T18:49:46.302Z,2.03
2018-05-15T18:51:49.307Z,2.17
2018-05-15T18:53:52.480Z,1.50
2018-05-15T18:55:55.459Z,1.73
2018-05-15T18:57:58.475Z,2.33
2018-05-15T19:00:01.415Z,2.30
2018-05-15T19:02:05.133Z,2.53
2018-05-15T19:04:08.053Z,2.30
2018-05-15T19:06:11.009Z,2.40
2018-05-15T19:08:13.974Z,2.03
2018-05-15T19:10:16.970Z,2.13
2018-05-15T19:12:19.960Z,2.20
2018-05-15T19:14:22.888Z,2.10
2018-05-15T19:16:25.830Z,2.10
2018-05-15T19:18:28.741Z,2.10
2018-05-15T19:20:31.661Z,2.10
2018-05-15T19:22:35.399Z,2.77
2018-05-15T19:24:38.359Z,2.30
2018-05-15T19:26:42.077Z,2.33
2018-05-15T19:28:44.998Z,2.70
2018-05-15T19:30:48.023Z,2.77
2018-05-15T19:32:56.693Z,2.20
2018-05-15T19:34:59.619Z,2.30
2018-05-15T19:37:08.199Z,2.63
2018-05-15T19:39:11.213Z,2.73
2018-05-15T19:41:19.896Z,2.30
2018-05-15T19:43:22.844Z,2.10
2018-05-15T19:45:25.837Z,2.37
2018-05-15T19:47:28.784Z,2.30
2018-05-15T19:49:31.702Z,2.37
2018-05-15T19:51:34.634Z,2.60
2018-05-15T19:53:38.444Z,2.37
2018-05-15T19:55:42.125Z,2.60
2018-05-15T19:57:45.055Z,2.80
2018-05-15T19:59:47.970Z,2.50
2018-05-15T20:01:50.900Z,2.40
2018-05-15T20:03:54.630Z,2.73
2018-05-15T20:05:57.672Z,2.30
2018-05-15T20:08:01.381Z,2.40
2018-05-15T20:10:04.312Z,2.30
2018-05-15T20:12:07.336Z,2.60
2018-05-15T20:14:11.055Z,2.50
2018-05-15T20:16:14.166Z,2.13
2018-05-15T20:18:17.191Z,2.57
2018-05-15T20:20:20.100Z,2.37
2018-05-15T20:22:23.837Z,2.33
2018-05-15T20:24:26.756Z,2.13
2018-05-15T20:26:30.450Z,1.97
2018-05-15T20:28:33.405Z,2.93
2018-05-15T20:30:36.394Z,2.80
2018-05-15T20:32:39.372Z,2.70
2018-05-15T20:34:42.298Z,2.50
2018-05-15T20:36:45.995Z,2.30
2018-05-15T20:38:49.738Z,2.63
2018-05-15T20:40:52.682Z,2.70
2018-05-15T20:42:56.586Z,2.47
2018-05-15T20:45:00.262Z,2.40
2018-05-15T20:47:03.205Z,2.37
2018-05-15T20:49:06.251Z,2.37
2018-05-15T20:51:09.934Z,2.17
2018-05-15T20:53:13.650Z,2.80
2018-05-15T20:55:17.354Z,2.40
2018-05-15T20:57:21.137Z,2.30
2018-05-15T20:59:24.850Z,2.87
2018-05-15T21:01:28.537Z,2.33
2018-05-15T21:03:32.355Z,2.67
2018-05-15T21:05:36.039Z,2.30
2018-05-15T21:07:39.012Z,2.30
2018-05-15T21:09:41.919Z,2.70
2018-05-15T21:11:45.721Z,2.40
2018-05-15T21:13:49.422Z,2.47
2018-05-15T21:15:53.094Z,2.00
2018-05-15T21:17:56.026Z,2.80
2018-05-15T21:19:58.949Z,2.70
2018-05-15T21:22:01.882Z,2.33
2018-05-15T21:24:04.817Z,2.40
2018-05-15T21:26:07.794Z,3.30
2018-05-15T21:28:10.740Z,2.33
2018-05-15T21:30:13.665Z,2.97
2018-05-15T21:32:16.679Z,3.30
2018-05-15T21:34:20.416Z,2.60
2018-05-15T21:36:23.442Z,3.30
2018-05-15T21:38:26.383Z,2.80
2018-05-15T21:40:29.305Z,3.03
2018-05-15T21:42:33.129Z,2.90
2018-05-15T21:44:36.931Z,2.43
2018-05-15T21:46:40.593Z,3.47
2018-05-15T21:48:43.553Z,2.63
2018-05-15T21:50:46.579Z,2.77
2018-05-15T21:52:50.322Z,2.77
2018-05-15T21:54:53.238Z,2.77
2018-05-15T21:56:56.162Z,2.77
2018-05-15T21:58:59.962Z,2.77
2018-05-15T22:01:03.645Z,2.93
2018-05-15T22:03:07.465Z,2.70
2018-05-15T22:05:11.146Z,2.70
2018-05-15T22:07:14.855Z,2.93
2018-05-15T22:09:19.244Z,3.47
2018-05-15T22:11:21.716Z,3.05
2018-05-15T22:13:36.437Z,2.80
2018-05-15T22:15:51.322Z,3.77
2018-05-15T22:18:06.354Z,3.23
2018-05-15T22:20:21.058Z,3.23
2018-05-15T22:22:23.502Z,3.60
2018-05-15T22:24:29.353Z,3.03
2018-05-15T22:26:33.819Z,3.33
2018-05-15T22:28:37.497Z,3.10
2018-05-15T22:30:40.481Z,2.97
2018-05-15T22:32:43.499Z,3.33
2018-05-15T22:34:47.301Z,3.17
2018-05-15T22:36:50.974Z,3.40
2018-05-15T22:38:53.895Z,3.90
2018-05-15T22:40:56.844Z,3.90
2018-05-15T22:43:00.609Z,3.97
2018-05-15T22:45:04.369Z,3.10
2018-05-15T22:47:07.429Z,3.50
2018-05-15T22:49:10.369Z,3.20
2018-05-15T22:51:13.316Z,3.43
2018-05-15T22:53:16.993Z,4.00
2018-05-15T22:55:19.950Z,3.50
2018-05-15T22:57:22.877Z,2.83
2018-05-15T22:59:26.591Z,3.33
2018-05-15T23:01:29.513Z,3.27
2018-05-15T23:03:32.545Z,2.87
2018-05-15T23:05:36.348Z,3.50
2018-05-15T23:07:40.050Z,3.60
2018-05-15T23:09:43.852Z,3.70
2018-05-15T23:11:46.830Z,2.73
2018-05-15T23:13:50.525Z,3.43
2018-05-15T23:15:54.334Z,3.00
2018-05-15T23:17:58.011Z,3.87
2018-05-15T23:20:00.959Z,2.97
2018-05-15T23:22:03.885Z,3.10
2018-05-15T23:24:07.563Z,2.60
2018-05-15T23:26:10.522Z,3.07
2018-05-15T23:28:13.481Z,3.20
2018-05-15T23:30:16.424Z,3.20
2018-05-15T23:32:19.342Z,3.10
2018-05-15T23:34:22.331Z,3.40
2018-05-15T23:36:25.242Z,3.30
2018-05-15T23:38:28.171Z,3.30
2018-05-15T23:40:31.973Z,3.40
2018-05-15T23:42:35.672Z,3.53
2018-05-15T23:44:39.475Z,3.57
2018-05-15T23:46:43.141Z,3.57
2018-05-15T23:48:46.075Z,3.33
2018-05-15T23:50:49.826Z,3.73
2018-05-15T23:52:52.841Z,3.40
2018-05-15T23:54:56.536Z,3.50
2018-05-15T23:56:59.626Z,3.90
2018-05-15T23:59:03.289Z,3.30
